Time;durP1;ratioP1;P1;durP2;ratioP2;P2;SDS_P1;SDS_P2;PMS_P1;PMS_P2;Temp;Humidity;BMP_temperature;BMP_pressure;BME280_temperature;BME280_humidity;BME280_pressure;Samples;Min_cycle;Max_cycle;Signal;HPM_P1;HPM_P2
2021/05/30 00:00:49;;;;;;;2.90;2.60;;;19.30;58.40;;;;;;5054093;28;20221;-64
2021/05/30 00:03:14;;;;;;;3.42;2.78;;;19.30;58.40;;;;;;5055044;28;20669;-64
2021/05/30 00:05:40;;;;;;;2.85;2.65;;;19.20;58.40;;;;;;5054697;28;20179;-65
2021/05/30 00:08:06;;;;;;;3.17;2.95;;;19.20;58.40;;;;;;5054413;28;20543;-64
2021/05/30 00:10:31;;;;;;;3.22;3.03;;;19.30;58.40;;;;;;5054862;28;20554;-65
2021/05/30 00:12:57;;;;;;;2.88;2.67;;;19.30;59.10;;;;;;5055103;28;20181;-64
2021/05/30 00:15:22;;;;;;;2.90;2.70;;;19.20;58.40;;;;;;5054112;28;20581;-65
2021/05/30 00:17:48;;;;;;;2.80;2.60;;;19.20;58.30;;;;;;5053450;28;20171;-64
2021/05/30 00:20:14;;;;;;;2.90;2.70;;;19.20;58.40;;;;;;5054689;28;20167;-64
2021/05/30 00:22:39;;;;;;;2.88;2.67;;;19.20;58.30;;;;;;5054066;28;20219;-64
2021/05/30 00:25:05;;;;;;;2.65;2.45;;;19.20;58.40;;;;;;5054782;28;20201;-63
2021/05/30 00:27:32;;;;;;;2.60;2.40;;;19.20;58.30;;;;;;5054362;28;20187;-63
2021/05/30 00:29:58;;;;;;;2.90;2.70;;;19.20;58.40;;;;;;5054024;28;20187;-63
2021/05/30 00:32:24;;;;;;;2.72;2.53;;;19.20;58.40;;;;;;5054583;28;20175;-63
2021/05/30 00:34:49;;;;;;;2.88;2.67;;;19.20;58.30;;;;;;5053490;28;20267;-64
2021/05/30 00:37:15;;;;;;;3.05;2.75;;;19.20;58.30;;;;;;5054443;28;20185;-64
2021/05/30 00:39:40;;;;;;;2.67;2.47;;;19.20;58.30;;;;;;5054336;28;20556;-64
2021/05/30 00:42:06;;;;;;;2.88;2.67;;;19.20;58.30;;;;;;5053393;28;20687;-64
2021/05/30 00:44:32;;;;;;;3.15;2.95;;;19.20;58.40;;;;;;5054114;28;20227;-64
2021/05/30 00:46:58;;;;;;;2.85;2.63;;;19.10;58.40;;;;;;5054255;28;20171;-64
2021/05/30 00:49:24;;;;;;;2.78;2.58;;;19.10;58.30;;;;;;5053519;28;20163;-64
2021/05/30 00:51:50;;;;;;;3.65;2.75;;;19.10;58.30;;;;;;5053735;28;20229;-64
2021/05/30 00:54:15;;;;;;;2.90;2.45;;;19.10;58.30;;;;;;5054271;28;20709;-64
2021/05/30 00:56:41;;;;;;;2.70;2.50;;;19.10;58.30;;;;;;5053160;28;20179;-64
2021/05/30 00:59:08;;;;;;;2.83;2.63;;;19.10;58.30;;;;;;5054102;28;20171;-63
2021/05/30 01:01:33;;;;;;;2.55;2.45;;;19.10;58.30;;;;;;5053682;28;20203;-64
2021/05/30 01:03:59;;;;;;;2.70;2.50;;;19.10;58.30;;;;;;5053050;28;20175;-64
2021/05/30 01:06:25;;;;;;;3.50;2.83;;;19.10;58.40;;;;;;5053836;28;20712;-65
2021/05/30 01:08:51;;;;;;;2.65;2.45;;;19.10;58.30;;;;;;5035624;28;20179;-65
2021/05/30 01:11:16;;;;;;;2.80;2.47;;;19.10;58.30;;;;;;5053298;28;20653;-65
2021/05/30 01:13:43;;;;;;;2.65;2.45;;;19.10;58.30;;;;;;5053599;28;20573;-64
2021/05/30 01:16:09;;;;;;;2.47;2.35;;;19.10;58.30;;;;;;5036138;28;20194;-65
2021/05/30 01:18:34;;;;;;;2.53;2.42;;;19.10;58.30;;;;;;5034832;28;20175;-64
2021/05/30 01:21:00;;;;;;;3.10;2.90;;;19.10;58.30;;;;;;5053383;28;20535;-64
2021/05/30 01:23:25;;;;;;;2.85;2.65;;;19.10;58.30;;;;;;5053644;28;20222;-64
2021/05/30 01:25:51;;;;;;;2.60;2.40;;;19.10;58.40;;;;;;5052437;28;20220;-63
2021/05/30 01:28:16;;;;;;;3.22;2.95;;;19.00;58.30;;;;;;5053217;28;20175;-63
2021/05/30 01:30:42;;;;;;;2.70;2.50;;;19.00;58.30;;;;;;5053173;28;20174;-63
2021/05/30 01:33:08;;;;;;;3.25;2.95;;;19.00;58.30;;;;;;5052584;28;20175;-63
2021/05/30 01:35:33;;;;;;;2.85;2.65;;;19.10;58.40;;;;;;5053252;28;20179;-64
2021/05/30 01:37:59;;;;;;;2.85;2.65;;;19.00;58.30;;;;;;5052873;28;20175;-64
2021/05/30 01:40:25;;;;;;;3.15;2.95;;;19.00;58.30;;;;;;5053319;28;20517;-64
2021/05/30 01:42:53;;;;;;;3.10;2.90;;;19.10;58.40;;;;;;5052859;28;20295;-63
2021/05/30 01:45:19;;;;;;;3.08;2.88;;;19.00;58.30;;;;;;5052550;28;20219;-64
2021/05/30 01:47:44;;;;;;;3.13;2.83;;;19.00;58.30;;;;;;5052765;28;20317;-64
2021/05/30 01:50:12;;;;;;;3.22;2.47;;;19.00;58.30;;;;;;5053363;28;20179;-64
2021/05/30 01:52:37;;;;;;;3.03;2.80;;;19.00;58.30;;;;;;5052193;28;20233;-64
2021/05/30 01:55:05;;;;;;;2.58;2.47;;;19.00;58.30;;;;;;5053102;28;20398;-64
2021/05/30 01:57:30;;;;;;;3.53;3.22;;;19.00;58.30;;;;;;5052904;28;20175;-63
2021/05/30 01:59:56;;;;;;;3.17;2.88;;;19.00;58.30;;;;;;5017995;28;20217;-63
2021/05/30 02:02:24;;;;;;;3.00;2.80;;;19.00;58.30;;;;;;5052761;28;20207;-64
2021/05/30 02:04:49;;;;;;;3.05;2.80;;;19.00;58.30;;;;;;5018992;28;20179;-64
2021/05/30 02:07:15;;;;;;;2.78;2.58;;;18.90;58.30;;;;;;5052261;28;20171;-64
2021/05/30 02:09:40;;;;;;;2.78;2.58;;;18.90;58.30;;;;;;5052371;28;20210;-65
2021/05/30 02:12:06;;;;;;;3.40;3.10;;;18.90;58.30;;;;;;5035059;28;20175;-64
2021/05/30 02:14:32;;;;;;;2.70;2.50;;;18.90;58.30;;;;;;5051717;28;20508;-64
2021/05/30 02:16:57;;;;;;;2.97;2.78;;;18.90;58.30;;;;;;5035372;28;20179;-64
2021/05/30 02:19:23;;;;;;;2.92;2.70;;;18.90;58.30;;;;;;5035624;28;20190;-64
2021/05/30 02:21:50;;;;;;;2.67;2.47;;;18.90;58.30;;;;;;5051991;28;20214;-64
2021/05/30 02:24:16;;;;;;;3.30;3.00;;;18.90;58.30;;;;;;5052911;28;20654;-63
2021/05/30 02:26:42;;;;;;;3.33;3.13;;;18.90;58.30;;;;;;5052551;28;20186;-63
2021/05/30 02:29:08;;;;;;;3.38;3.08;;;18.90;58.30;;;;;;5034183;28;20541;-63
2021/05/30 02:31:33;;;;;;;3.15;2.95;;;18.90;58.30;;;;;;5052085;28;20182;-63
2021/05/30 02:33:59;;;;;;;3.10;2.90;;;18.90;58.30;;;;;;5052737;28;20520;-64
2021/05/30 02:36:25;;;;;;;2.70;2.55;;;18.90;58.30;;;;;;5051908;28;20175;-63
2021/05/30 02:38:50;;;;;;;3.13;2.92;;;18.90;58.30;;;;;;5052540;28;20190;-64
2021/05/30 02:41:16;;;;;;;3.00;2.80;;;18.90;58.30;;;;;;5058352;28;20221;-64
2021/05/30 02:43:42;;;;;;;2.95;2.75;;;18.90;58.30;;;;;;5058464;28;20178;-64
2021/05/30 02:46:07;;;;;;;3.00;2.80;;;18.90;58.30;;;;;;5059140;28;20175;-64
2021/05/30 02:48:33;;;;;;;2.90;2.70;;;18.90;58.30;;;;;;5058229;28;20261;-64
2021/05/30 02:50:59;;;;;;;2.92;2.72;;;18.90;58.30;;;;;;5059035;28;20779;-64
2021/05/30 02:53:31;;;;;;;3.33;3.03;;;18.80;58.20;;;;;;5059219;28;20175;-63
2021/05/30 02:55:57;;;;;;;2.92;2.65;;;18.80;58.30;;;;;;5058301;28;20178;-64
2021/05/30 02:58:23;;;;;;;3.45;3.15;;;18.80;58.30;;;;;;5059040;28;20170;-63
2021/05/30 03:00:48;;;;;;;3.40;3.20;;;18.90;58.30;;;;;;5058497;28;20546;-63
2021/05/30 03:03:14;;;;;;;3.13;2.92;;;18.80;58.30;;;;;;5058264;28;20206;-63
2021/05/30 03:05:39;;;;;;;4.20;2.78;;;18.80;58.30;;;;;;5058892;28;20228;-64
2021/05/30 03:08:05;;;;;;;2.97;2.78;;;18.80;58.30;;;;;;5058713;28;20210;-64
2021/05/30 03:10:31;;;;;;;3.10;2.90;;;18.80;58.30;;;;;;5057717;28;20274;-64
2021/05/30 03:12:56;;;;;;;3.20;3.00;;;18.80;58.30;;;;;;5058712;28;20171;-64
2021/05/30 03:15:21;;;;;;;2.78;2.55;;;18.80;58.40;;;;;;5058682;28;20163;-64
2021/05/30 03:17:47;;;;;;;3.20;2.90;;;18.80;58.30;;;;;;5057814;28;20224;-64
2021/05/30 03:20:13;;;;;;;3.03;2.83;;;18.80;58.30;;;;;;5059195;28;20534;-64
2021/05/30 03:22:39;;;;;;;3.00;2.80;;;18.80;58.30;;;;;;5058448;28;20211;-63
2021/05/30 03:25:05;;;;;;;2.97;2.78;;;18.80;58.30;;;;;;5057897;28;20194;-64
2021/05/30 03:27:30;;;;;;;3.13;2.83;;;18.80;58.30;;;;;;5058902;28;20186;-63
2021/05/30 03:29:57;;;;;;;2.70;2.50;;;18.80;58.30;;;;;;5058431;28;20187;-63
2021/05/30 03:32:22;;;;;;;3.40;3.20;;;18.80;58.40;;;;;;5058191;28;20182;-63
2021/05/30 03:34:48;;;;;;;3.13;2.60;;;18.80;58.30;;;;;;5058368;28;20175;-64
2021/05/30 03:37:13;;;;;;;2.90;2.70;;;18.80;58.30;;;;;;5058780;28;20641;-64
2021/05/30 03:39:41;;;;;;;3.40;3.20;;;18.80;58.30;;;;;;5057678;28;20181;-64
2021/05/30 03:42:10;;;;;;;3.13;2.92;;;18.80;58.30;;;;;;5058685;28;20207;-64
2021/05/30 03:44:36;;;;;;;3.10;2.90;;;18.80;58.30;;;;;;5057352;28;20223;-64
2021/05/30 03:47:02;;;;;;;3.15;2.95;;;18.70;58.20;;;;;;5024328;28;20194;-64
2021/05/30 03:49:27;;;;;;;3.25;3.05;;;18.70;58.30;;;;;;5058574;28;20171;-64
2021/05/30 03:51:53;;;;;;;3.00;2.80;;;18.80;58.30;;;;;;5055219;28;20183;-64
2021/05/30 03:54:18;;;;;;;3.03;2.83;;;18.70;58.20;;;;;;5055437;28;20510;-64
2021/05/30 03:56:44;;;;;;;3.35;3.15;;;18.80;58.30;;;;;;5055041;28;20210;-64
2021/05/30 03:59:09;;;;;;;3.15;2.95;;;18.80;58.30;;;;;;5054477;28;20179;-63
2021/05/30 04:01:37;;;;;;;3.70;3.40;;;18.70;58.20;;;;;;5054769;28;20294;-63
2021/05/30 04:04:03;;;;;;;2.88;2.67;;;18.70;58.20;;;;;;5055019;28;20664;-64
2021/05/30 04:06:28;;;;;;;3.42;3.10;;;18.70;58.50;;;;;;5054372;28;20171;-64
2021/05/30 04:08:54;;;;;;;3.10;2.90;;;18.70;58.10;;;;;;5054670;28;20179;-65
2021/05/30 04:11:19;;;;;;;3.25;2.95;;;18.80;58.20;;;;;;5055045;28;20586;-65
2021/05/30 04:13:45;;;;;;;3.40;3.00;;;18.80;58.20;;;;;;5053777;28;20191;-64
2021/05/30 04:16:10;;;;;;;3.30;3.10;;;18.80;58.20;;;;;;5055240;28;20171;-64
2021/05/30 04:18:36;;;;;;;3.42;3.15;;;18.80;58.10;;;;;;5054690;28;20185;-64
2021/05/30 04:21:03;;;;;;;3.55;3.25;;;18.80;58.10;;;;;;5054386;28;20167;-63
2021/05/30 04:23:29;;;;;;;3.13;2.92;;;18.80;58.10;;;;;;5054771;28;20219;-63
2021/05/30 04:25:57;;;;;;;3.50;3.20;;;18.80;58.10;;;;;;5054348;28;20187;-63
2021/05/30 04:28:22;;;;;;;2.83;2.63;;;18.80;58.10;;;;;;5053797;28;20171;-63
2021/05/30 04:30:48;;;;;;;3.05;2.85;;;18.80;58.10;;;;;;5054427;28;20167;-63
2021/05/30 04:33:13;;;;;;;3.08;2.88;;;18.80;58.10;;;;;;5054641;28;20194;-63
2021/05/30 04:35:39;;;;;;;3.08;2.88;;;18.80;58.10;;;;;;5053509;28;20171;-64
2021/05/30 04:38:04;;;;;;;3.28;3.08;;;18.80;58.00;;;;;;5054495;28;20221;-63
2021/05/30 04:40:30;;;;;;;2.75;2.60;;;18.80;58.00;;;;;;5054441;28;20257;-64
2021/05/30 04:42:55;;;;;;;3.67;3.40;;;18.80;58.00;;;;;;5053322;28;20334;-64
2021/05/30 04:45:21;;;;;;;3.22;3.03;;;18.80;58.00;;;;;;5054152;28;20253;-64
2021/05/30 04:47:46;;;;;;;3.10;2.90;;;18.80;58.00;;;;;;5054155;28;20261;-64
2021/05/30 04:50:12;;;;;;;3.60;3.30;;;18.80;58.00;;;;;;5053812;28;20651;-64
2021/05/30 04:52:39;;;;;;;3.28;3.08;;;18.80;58.00;;;;;;5053997;28;20201;-64
2021/05/30 04:55:09;;;;;;;3.00;2.80;;;18.80;58.00;;;;;;5053338;28;20175;-63
2021/05/30 04:57:34;;;;;;;3.13;2.92;;;18.80;58.00;;;;;;5053808;28;20195;-63
2021/05/30 05:00:00;;;;;;;3.33;3.13;;;18.80;58.00;;;;;;5053863;28;20210;-63
2021/05/30 05:02:26;;;;;;;3.20;3.00;;;18.80;58.00;;;;;;5052849;28;20681;-63
2021/05/30 05:04:52;;;;;;;3.17;2.90;;;18.80;58.00;;;;;;5053673;28;20267;-64
2021/05/30 05:07:17;;;;;;;3.38;3.17;;;18.80;58.60;;;;;;5053907;28;20211;-65
2021/05/30 05:09:43;;;;;;;3.38;3.05;;;18.80;58.00;;;;;;5053128;28;20170;-64
2021/05/30 05:12:09;;;;;;;3.38;3.08;;;18.80;58.00;;;;;;5053756;28;20163;-64
2021/05/30 05:14:35;;;;;;;3.10;2.90;;;18.80;58.00;;;;;;5053495;28;20645;-64
2021/05/30 05:17:00;;;;;;;3.25;3.00;;;18.80;57.90;;;;;;5053257;28;20174;-64
2021/05/30 05:19:26;;;;;;;3.40;3.10;;;18.80;57.90;;;;;;5053723;28;20175;-64
2021/05/30 05:21:51;;;;;;;3.83;3.53;;;18.80;57.90;;;;;;5053149;28;20223;-63
2021/05/30 05:24:17;;;;;;;3.55;3.33;;;18.80;57.90;;;;;;5052963;28;20638;-63
2021/05/30 05:26:42;;;;;;;3.40;3.20;;;18.80;57.90;;;;;;5053109;28;20542;-63
2021/05/30 05:29:08;;;;;;;2.97;2.78;;;18.80;57.90;;;;;;5053371;28;20175;-63
2021/05/30 05:31:33;;;;;;;3.38;3.17;;;18.80;57.90;;;;;;5052503;28;20186;-63
2021/05/30 05:33:59;;;;;;;3.38;3.17;;;18.80;57.90;;;;;;5053413;28;20175;-63
2021/05/30 05:36:24;;;;;;;3.45;3.15;;;18.80;57.90;;;;;;5053351;28;20179;-64
2021/05/30 05:38:50;;;;;;;3.55;3.35;;;18.80;57.90;;;;;;5052211;28;20215;-64
2021/05/30 05:41:16;;;;;;;3.30;3.00;;;18.80;57.90;;;;;;5053076;28;20179;-65
2021/05/30 05:43:41;;;;;;;3.75;3.45;;;18.80;57.80;;;;;;5053047;28;20541;-64
2021/05/30 05:46:07;;;;;;;3.83;3.55;;;18.80;57.80;;;;;;5052105;28;20681;-64
2021/05/30 05:48:34;;;;;;;4.03;3.67;;;18.80;57.80;;;;;;5053113;28;20178;-64
2021/05/30 05:50:59;;;;;;;3.17;2.97;;;18.80;57.80;;;;;;5052960;28;20187;-64
2021/05/30 05:53:25;;;;;;;3.58;3.30;;;18.80;57.80;;;;;;5052566;28;20183;-64
2021/05/30 05:55:50;;;;;;;3.28;3.08;;;18.80;57.80;;;;;;5052622;28;20185;-64
2021/05/30 05:58:16;;;;;;;3.60;3.40;;;18.80;57.80;;;;;;5052364;28;20175;-63
2021/05/30 06:00:41;;;;;;;3.60;3.30;;;18.80;57.80;;;;;;5052528;28;20556;-63
2021/05/30 06:03:07;;;;;;;3.95;3.63;;;18.80;57.70;;;;;;5052873;28;20217;-64
2021/05/30 06:05:33;;;;;;;3.63;3.35;;;18.80;57.70;;;;;;5051910;28;20907;-64
2021/05/30 06:07:58;;;;;;;3.22;3.03;;;18.80;57.70;;;;;;5052717;28;20202;-65
2021/05/30 06:10:25;;;;;;;3.67;3.38;;;18.80;57.70;;;;;;5052638;28;20225;-65
2021/05/30 06:13:09;;;;;;;3.28;3.08;;;18.80;57.70;;;;;;5033724;28;20707;-64
2021/05/30 06:15:35;;;;;;;3.60;3.40;;;18.80;57.70;;;;;;5051724;28;20178;-64
2021/05/30 06:18:06;;;;;;;3.58;3.33;;;18.90;57.80;;;;;;5052762;28;20175;-64
2021/05/30 06:20:31;;;;;;;3.25;3.05;;;18.80;57.70;;;;;;5051740;28;20274;-64
2021/05/30 06:22:57;;;;;;;3.70;3.40;;;18.90;57.70;;;;;;5052268;28;20293;-64
2021/05/30 06:25:26;;;;;;;3.10;2.90;;;18.90;57.80;;;;;;5052891;28;20305;-64
2021/05/30 06:27:51;;;;;;;3.13;2.92;;;18.90;57.70;;;;;;5051525;28;20178;-63
2021/05/30 06:30:18;;;;;;;3.03;2.83;;;18.90;57.70;;;;;;5052375;28;20522;-63
2021/05/30 06:32:43;;;;;;;3.47;3.28;;;18.90;57.70;;;;;;5034399;28;20201;-63
2021/05/30 06:35:09;;;;;;;3.03;2.83;;;18.90;57.70;;;;;;5051753;28;20625;-64
2021/05/30 06:37:35;;;;;;;3.30;3.10;;;18.90;57.70;;;;;;5052072;28;20276;-65
2021/05/30 06:40:00;;;;;;;3.58;3.28;;;18.90;57.70;;;;;;5052421;28;20711;-65
2021/05/30 06:42:25;;;;;;;3.25;3.05;;;18.90;57.70;;;;;;5051767;28;20211;-64
2021/05/30 06:44:51;;;;;;;3.50;3.30;;;18.90;57.70;;;;;;5051754;28;20230;-64
2021/05/30 06:47:16;;;;;;;3.78;3.47;;;19.00;57.70;;;;;;5052311;28;20508;-64
2021/05/30 06:49:42;;;;;;;3.45;3.17;;;18.90;57.60;;;;;;5051272;28;20304;-64
2021/05/30 06:52:07;;;;;;;3.78;3.30;;;18.90;57.60;;;;;;5052148;28;20183;-64
2021/05/30 06:54:33;;;;;;;3.60;3.30;;;18.90;57.60;;;;;;5051365;28;20174;-63
2021/05/30 06:57:01;;;;;;;3.67;3.38;;;19.00;57.70;;;;;;5052094;28;20204;-63
2021/05/30 06:59:28;;;;;;;3.40;3.20;;;19.00;57.70;;;;;;5052736;28;20262;-63
2021/05/30 07:01:53;;;;;;;3.35;3.10;;;19.00;57.70;;;;;;5051118;28;20214;-63
2021/05/30 07:04:19;;;;;;;3.08;2.88;;;19.00;57.60;;;;;;5052221;28;20221;-64
2021/05/30 07:06:44;;;;;;;3.30;3.10;;;19.00;57.70;;;;;;5051622;28;20254;-64
2021/05/30 07:09:10;;;;;;;3.17;2.97;;;19.00;57.60;;;;;;5051725;28;20176;-64
2021/05/30 07:11:35;;;;;;;3.30;3.00;;;19.00;57.60;;;;;;5051755;28;20183;-64
2021/05/30 07:14:01;;;;;;;3.10;2.90;;;19.00;57.60;;;;;;5052090;28;20175;-63
2021/05/30 07:16:26;;;;;;;3.20;3.00;;;19.00;57.60;;;;;;5051500;28;20175;-64
2021/05/30 07:18:52;;;;;;;3.75;3.45;;;19.00;57.60;;;;;;5051936;28;20185;-64
2021/05/30 07:21:17;;;;;;;3.10;2.83;;;19.00;57.60;;;;;;5052054;28;20207;-63
2021/05/30 07:23:43;;;;;;;3.05;2.85;;;19.00;57.50;;;;;;5051234;28;20225;-63
2021/05/30 07:26:09;;;;;;;3.47;3.17;;;19.10;57.60;;;;;;5053773;28;20230;-63
2021/05/30 07:28:34;;;;;;;3.13;2.83;;;19.10;57.60;;;;;;5055776;28;20183;-60
2021/05/30 07:31:00;;;;;;;3.75;3.45;;;19.10;57.60;;;;;;5055201;28;20167;-60
2021/05/30 07:33:25;;;;;;;3.58;3.28;;;19.10;57.60;;;;;;5055768;28;20182;-61
2021/05/30 07:35:51;;;;;;;3.60;3.40;;;19.10;57.80;;;;;;5055221;28;20201;-62
2021/05/30 07:38:16;;;;;;;3.72;3.45;;;19.10;57.90;;;;;;5054871;28;20179;-61
2021/05/30 07:40:45;;;;;;;3.00;2.80;;;19.20;57.80;;;;;;5055380;28;20175;-61
2021/05/30 07:43:10;;;;;;;3.95;3.65;;;19.20;57.70;;;;;;5055620;28;20219;-61
2021/05/30 07:45:36;;;;;;;3.88;3.50;;;19.20;57.60;;;;;;5054281;28;20257;-61
2021/05/30 07:48:01;;;;;;;4.22;3.72;;;19.20;57.60;;;;;;5055361;28;20634;-61
2021/05/30 07:50:27;;;;;;;4.82;3.60;;;19.20;57.60;;;;;;5055273;28;20317;-61
2021/05/30 07:52:52;;;;;;;4.18;3.88;;;19.20;57.60;;;;;;5054462;28;20179;-61
2021/05/30 07:55:19;;;;;;;6.45;3.88;;;19.20;57.70;;;;;;5055411;28;20213;-61
2021/05/30 07:57:46;;;;;;;4.18;3.78;;;19.20;58.30;;;;;;5054734;28;20657;-61
2021/05/30 08:00:13;;;;;;;3.65;3.35;;;19.20;57.70;;;;;;5054823;28;20175;-61
2021/05/30 08:02:39;;;;;;;4.28;3.88;;;19.30;57.60;;;;;;5054660;28;20562;-61
2021/05/30 08:05:05;;;;;;;4.50;4.10;;;19.30;57.60;;;;;;5054164;28;20630;-61
2021/05/30 08:07:30;;;;;;;4.07;3.67;;;19.30;57.60;;;;;;5054849;28;20179;-61
2021/05/30 08:09:56;;;;;;;3.63;3.25;;;19.30;57.60;;;;;;5055046;28;20178;-61
2021/05/30 08:12:22;;;;;;;4.35;3.95;;;19.30;57.60;;;;;;5054169;28;20178;-61
2021/05/30 08:14:47;;;;;;;4.88;3.95;;;19.30;57.60;;;;;;5054659;28;20171;-61
2021/05/30 08:17:13;;;;;;;3.83;3.50;;;19.30;57.60;;;;;;5054882;28;20179;-61
2021/05/30 08:19:38;;;;;;;4.63;3.78;;;19.30;57.60;;;;;;5053687;28;20175;-63
2021/05/30 08:22:04;;;;;;;5.78;3.85;;;19.30;57.60;;;;;;5054842;28;20217;-61
2021/05/30 08:24:29;;;;;;;3.85;3.50;;;19.30;57.60;;;;;;5054896;28;20518;-61
2021/05/30 08:26:55;;;;;;;4.45;3.80;;;19.40;57.70;;;;;;5053720;28;20167;-60
2021/05/30 08:29:21;;;;;;;4.75;3.83;;;19.40;57.80;;;;;;5054691;28;20175;-61
2021/05/30 08:31:49;;;;;;;3.95;3.63;;;19.40;57.80;;;;;;5054223;28;20187;-61
2021/05/30 08:34:14;;;;;;;4.18;3.75;;;19.40;57.90;;;;;;5053759;28;20232;-61
2021/05/30 08:36:40;;;;;;;3.72;3.42;;;19.40;57.90;;;;;;5054271;28;20270;-62
2021/05/30 08:39:06;;;;;;;5.03;4.00;;;19.50;57.80;;;;;;5053541;28;20172;-62
2021/05/30 08:41:31;;;;;;;6.43;4.35;;;19.50;57.80;;;;;;5053416;28;20182;-62
2021/05/30 08:43:57;;;;;;;4.57;3.38;;;19.50;57.80;;;;;;5054375;28;20172;-63
2021/05/30 08:46:23;;;;;;;4.00;3.45;;;19.60;57.90;;;;;;5054321;28;20198;-64
2021/05/30 08:48:48;;;;;;;3.80;3.50;;;19.60;57.90;;;;;;5053214;28;20711;-62
2021/05/30 08:51:15;;;;;;;3.65;3.35;;;19.60;57.90;;;;;;5054403;28;20217;-62
2021/05/30 08:53:41;;;;;;;4.13;3.83;;;19.60;57.90;;;;;;5036480;28;20257;-61
2021/05/30 08:56:07;;;;;;;4.10;3.80;;;19.60;57.90;;;;;;5053465;28;20305;-61
2021/05/30 08:58:34;;;;;;;3.90;3.33;;;19.70;57.90;;;;;;5053861;28;20258;-61
2021/05/30 09:01:13;;;;;;;4.28;3.90;;;19.70;58.00;;;;;;5053988;28;20213;-61
2021/05/30 09:04:02;;;;;;;4.75;3.55;;;19.70;58.00;;;;;;5053775;28;20219;-61
2021/05/30 09:06:27;;;;;;;4.07;3.75;;;19.70;58.00;;;;;;5054145;28;20213;-64
2021/05/30 09:08:53;;;;;;;4.40;4.03;;;19.70;58.00;;;;;;5052737;28;20611;-65
2021/05/30 09:11:50;;;;;;;3.95;3.65;;;19.70;57.90;;;;;;5053895;28;20534;-64
2021/05/30 09:14:18;;;;;;;4.50;3.45;;;19.80;58.00;;;;;;5053954;28;20209;-62
2021/05/30 09:17:02;;;;;;;4.93;3.55;;;19.80;58.00;;;;;;5052527;28;20183;-63
2021/05/30 09:19:28;;;;;;;6.45;3.95;;;19.80;57.90;;;;;;5053821;28;20203;-65
2021/05/30 09:21:55;;;;;;;4.82;3.80;;;19.80;57.90;;;;;;5053134;28;20249;-64
2021/05/30 09:24:20;;;;;;;4.07;3.50;;;19.80;58.00;;;;;;5035011;28;20182;-65
2021/05/30 09:26:45;;;;;;;4.82;3.90;;;19.90;58.00;;;;;;5053439;28;20179;-65
2021/05/30 09:29:11;;;;;;;4.18;3.72;;;19.90;58.00;;;;;;5053267;28;20229;-64
2021/05/30 09:31:53;;;;;;;4.57;3.70;;;19.90;58.00;;;;;;5052848;28;20545;-64
2021/05/30 09:34:31;;;;;;;6.07;4.00;;;19.90;58.00;;;;;;5053414;28;20252;-66
2021/05/30 09:36:57;;;;;;;5.38;4.15;;;19.90;58.00;;;;;;5052826;28;20582;-64
2021/05/30 09:39:36;;;;;;;3.70;3.40;;;20.00;58.00;;;;;;5053416;28;20262;-67
2021/05/30 09:42:20;;;;;;;5.22;3.40;;;20.00;58.00;;;;;;5053262;28;20284;-68
2021/05/30 09:45:01;;;;;;;4.00;3.58;;;20.00;58.00;;;;;;5051918;28;20226;-67
2021/05/30 09:47:45;;;;;;;4.35;3.42;;;20.00;57.90;;;;;;5053522;28;20193;-66
2021/05/30 09:50:16;;;;;;;4.05;3.70;;;20.10;58.00;;;;;;5053199;28;20198;-67
2021/05/30 09:52:45;;;;;;;3.97;3.67;;;20.10;57.90;;;;;;5052347;28;20223;-62
2021/05/30 09:55:21;;;;;;;3.72;3.42;;;20.10;58.00;;;;;;5053031;28;20576;-62
2021/05/30 09:58:05;;;;;;;4.10;3.70;;;20.10;58.00;;;;;;5052127;28;20182;-62
2021/05/30 10:00:30;;;;;;;4.07;3.70;;;20.10;57.90;;;;;;5052921;28;20534;-62
2021/05/30 10:02:56;;;;;;;4.28;3.88;;;20.10;57.90;;;;;;5052521;28;20221;-62
2021/05/30 10:05:21;;;;;;;4.30;3.90;;;20.00;57.80;;;;;;5052348;28;20306;-62
2021/05/30 10:07:48;;;;;;;4.60;3.85;;;20.00;57.70;;;;;;5052440;28;20175;-63
2021/05/30 10:10:14;;;;;;;4.25;3.85;;;20.10;57.70;;;;;;5035353;28;20187;-62
2021/05/30 10:12:40;;;;;;;4.22;3.88;;;20.10;57.70;;;;;;5051955;28;20186;-63
2021/05/30 10:15:06;;;;;;;4.05;3.70;;;20.00;57.60;;;;;;5053000;28;20385;-62
2021/05/30 10:17:31;;;;;;;3.97;3.65;;;20.10;57.60;;;;;;5052415;28;20179;-62
2021/05/30 10:19:57;;;;;;;4.18;3.75;;;20.10;57.60;;;;;;5017800;28;20167;-62
2021/05/30 10:22:23;;;;;;;5.40;3.63;;;20.10;57.60;;;;;;5018260;28;20226;-62
2021/05/30 10:24:49;;;;;;;4.50;4.10;;;20.10;57.50;;;;;;5052423;28;20175;-62
2021/05/30 10:27:18;;;;;;;4.25;3.95;;;20.10;57.40;;;;;;5052181;28;20177;-62
2021/05/30 10:30:06;;;;;;;3.78;3.47;;;20.10;57.40;;;;;;5052215;28;20614;-62
2021/05/30 10:32:31;;;;;;;3.97;3.67;;;20.10;57.30;;;;;;5051930;28;20210;-62
2021/05/30 10:35:17;;;;;;;4.20;3.80;;;20.10;57.40;;;;;;5050831;28;20201;-62
2021/05/30 10:37:47;;;;;;;4.65;4.32;;;20.20;57.30;;;;;;5043654;28;20179;-62
2021/05/30 10:40:22;;;;;;;3.70;3.33;;;20.20;57.30;;;;;;5051958;28;20517;-62
2021/05/30 10:43:10;;;;;;;4.35;3.97;;;20.20;57.20;;;;;;5034048;28;20256;-62
2021/05/30 10:45:37;;;;;;;4.00;3.70;;;20.20;57.20;;;;;;5051970;28;20230;-62
2021/05/30 10:48:02;;;;;;;4.40;3.88;;;20.20;57.20;;;;;;5051793;28;20262;-62
2021/05/30 10:50:36;;;;;;;4.03;3.63;;;20.20;57.20;;;;;;5052541;28;20206;-62
2021/05/30 10:53:02;;;;;;;4.10;3.67;;;20.20;57.20;;;;;;5052090;28;20205;-62
2021/05/30 10:55:29;;;;;;;4.15;3.85;;;20.20;57.10;;;;;;5051642;28;20186;-62
2021/05/30 10:57:54;;;;;;;4.25;3.85;;;20.20;57.10;;;;;;5051835;28;20175;-62
2021/05/30 11:00:20;;;;;;;3.70;3.38;;;20.20;57.10;;;;;;5052491;28;20179;-62
2021/05/30 11:03:07;;;;;;;5.30;4.20;;;20.30;57.10;;;;;;5054891;28;20653;-62
2021/05/30 11:05:46;;;;;;;4.43;4.13;;;20.30;57.10;;;;;;5055891;28;20183;-63
2021/05/30 11:08:30;;;;;;;4.40;3.70;;;20.30;57.00;;;;;;5055674;28;20209;-62
2021/05/30 11:11:20;;;;;;;3.80;3.55;;;20.30;57.00;;;;;;5036305;28;20190;-62
2021/05/30 11:13:58;;;;;;;3.55;3.35;;;20.30;57.00;;;;;;5035797;28;20180;-62
2021/05/30 11:16:28;;;;;;;4.25;3.78;;;20.30;57.00;;;;;;5035496;28;20175;-62
2021/05/30 11:19:02;;;;;;;4.18;3.88;;;20.30;56.90;;;;;;5035903;28;20175;-62
2021/05/30 11:21:28;;;;;;;3.83;3.53;;;20.30;56.90;;;;;;5044367;28;20175;-62
2021/05/30 11:23:55;;;;;;;3.67;3.30;;;20.30;56.90;;;;;;5054563;28;20211;-62
2021/05/30 11:26:20;;;;;;;3.70;3.40;;;20.30;56.90;;;;;;5055966;28;20175;-62
2021/05/30 11:28:46;;;;;;;3.38;3.10;;;20.30;56.80;;;;;;5055326;28;20179;-62
2021/05/30 11:31:12;;;;;;;3.97;3.67;;;20.30;56.80;;;;;;5055397;28;20163;-62
2021/05/30 11:33:40;;;;;;;3.70;3.50;;;20.30;56.70;;;;;;5055667;28;20172;-62
2021/05/30 11:36:09;;;;;;;3.70;3.40;;;20.40;56.80;;;;;;5055045;28;20232;-62
2021/05/30 11:38:52;;;;;;;4.00;3.70;;;20.40;56.80;;;;;;5055607;28;20175;-62
2021/05/30 11:41:26;;;;;;;3.92;3.40;;;20.40;56.70;;;;;;5055699;28;20232;-65
2021/05/30 11:44:03;;;;;;;3.42;3.13;;;20.40;56.60;;;;;;5054250;28;20206;-65
2021/05/30 11:46:31;;;;;;;3.50;3.22;;;20.40;56.60;;;;;;5055805;28;20217;-65
2021/05/30 11:49:01;;;;;;;4.22;3.50;;;20.40;56.60;;;;;;5055447;28;20286;-64
2021/05/30 11:51:50;;;;;;;4.13;3.75;;;20.40;56.60;;;;;;5054781;28;20194;-65
2021/05/30 11:54:19;;;;;;;3.75;3.45;;;20.50;56.70;;;;;;5055456;28;20183;-65
2021/05/30 11:56:46;;;;;;;3.33;3.13;;;20.50;56.70;;;;;;5055112;28;20183;-65
2021/05/30 11:59:11;;;;;;;3.60;3.30;;;20.50;56.70;;;;;;5054721;28;20171;-64
2021/05/30 12:01:47;;;;;;;3.28;3.00;;;20.50;56.80;;;;;;5055040;28;20171;-64
2021/05/30 12:04:24;;;;;;;6.82;3.35;;;20.60;56.80;;;;;;5054470;28;20186;-64
2021/05/30 12:06:49;;;;;;;5.18;4.03;;;20.50;56.60;;;;;;5036958;28;20699;-64
2021/05/30 12:09:15;;;;;;;4.53;4.00;;;20.60;56.60;;;;;;5055477;28;20206;-63
2021/05/30 12:11:41;;;;;;;5.47;2.92;;;20.50;56.40;;;;;;5053637;28;20568;-63
2021/05/30 12:14:06;;;;;;;3.58;3.15;;;20.50;56.30;;;;;;5054254;28;20179;-63
2021/05/30 12:16:32;;;;;;;3.30;3.00;;;20.50;56.20;;;;;;5054702;28;20680;-64
2021/05/30 12:18:59;;;;;;;3.80;3.47;;;20.50;56.10;;;;;;5054091;28;20172;-64
2021/05/30 12:21:38;;;;;;;3.83;3.17;;;20.50;56.00;;;;;;5054898;28;20180;-64
2021/05/30 12:24:08;;;;;;;4.60;3.58;;;20.50;56.00;;;;;;5054836;28;20198;-63
2021/05/30 12:26:33;;;;;;;4.40;3.30;;;20.50;55.80;;;;;;5053836;28;20232;-63
2021/05/30 12:28:59;;;;;;;3.78;3.47;;;20.50;55.70;;;;;;5054608;28;20174;-63
2021/05/30 12:31:25;;;;;;;3.92;3.40;;;20.50;55.70;;;;;;5020527;28;20540;-62
2021/05/30 12:34:04;;;;;;;3.70;3.40;;;20.50;55.60;;;;;;5035757;28;20175;-62
2021/05/30 12:36:49;;;;;;;3.38;3.13;;;20.50;55.50;;;;;;5036708;28;20182;-63
2021/05/30 12:39:25;;;;;;;3.78;3.03;;;20.50;55.20;;;;;;5054004;28;20186;-63
2021/05/30 12:41:57;;;;;;;3.40;3.10;;;20.60;55.20;;;;;;5054120;28;20179;-63
2021/05/30 12:44:30;;;;;;;3.38;3.10;;;20.60;55.00;;;;;;5054527;28;20238;-63
2021/05/30 12:46:58;;;;;;;3.95;3.65;;;20.60;55.00;;;;;;5053807;28;20179;-63
2021/05/30 12:49:24;;;;;;;3.72;3.28;;;20.60;55.00;;;;;;5054576;28;20171;-63